sensor_id;sensor_type;location;lat;lon;timestamp;temperature;humidity
10294;DHT22;5192;50.328;7.610;2023-03-01T00:01:41;-2.40;18.10
10294;DHT22;5192;50.328;7.610;2023-03-01T00:04:07;-2.50;18.40
10294;DHT22;5192;50.328;7.610;2023-03-01T00:06:34;-2.50;18.70
10294;DHT22;5192;50.328;7.610;2023-03-01T00:08:59;-2.50;19.20
10294;DHT22;5192;50.328;7.610;2023-03-01T00:11:30;-2.50;19.50
10294;DHT22;5192;50.328;7.610;2023-03-01T00:14:00;-2.50;19.80
10294;DHT22;5192;50.328;7.610;2023-03-01T00:16:46;-2.50;20.00
10294;DHT22;5192;50.328;7.610;2023-03-01T00:19:18;-2.50;20.60
10294;DHT22;5192;50.328;7.610;2023-03-01T00:21:46;-2.50;20.20
10294;DHT22;5192;50.328;7.610;2023-03-01T00:24:13;-2.50;20.40
10294;DHT22;5192;50.328;7.610;2023-03-01T00:26:39;-2.50;19.90
10294;DHT22;5192;50.328;7.610;2023-03-01T00:29:06;-2.50;19.80
10294;DHT22;5192;50.328;7.610;2023-03-01T00:31:36;-2.50;19.20
10294;DHT22;5192;50.328;7.610;2023-03-01T00:34:06;-2.40;18.60
10294;DHT22;5192;50.328;7.610;2023-03-01T00:36:35;-2.40;16.90
10294;DHT22;5192;50.328;7.610;2023-03-01T00:39:02;-2.40;15.70
10294;DHT22;5192;50.328;7.610;2023-03-01T00:41:30;-2.30;15.20
10294;DHT22;5192;50.328;7.610;2023-03-01T00:43:57;-2.30;14.50
10294;DHT22;5192;50.328;7.610;2023-03-01T00:46:26;-2.20;14.00
10294;DHT22;5192;50.328;7.610;2023-03-01T00:48:53;-2.20;13.80
10294;DHT22;5192;50.328;7.610;2023-03-01T00:51:26;-2.20;13.10
10294;DHT22;5192;50.328;7.610;2023-03-01T00:53:56;-2.10;13.90
10294;DHT22;5192;50.328;7.610;2023-03-01T00:56:24;-2.20;13.70
10294;DHT22;5192;50.328;7.610;2023-03-01T00:58:50;-2.20;14.80
10294;DHT22;5192;50.328;7.610;2023-03-01T01:01:27;-2.20;15.90
10294;DHT22;5192;50.328;7.610;2023-03-01T01:04:07;-2.20;15.30
10294;DHT22;5192;50.328;7.610;2023-03-01T01:06:37;-2.30;16.10
10294;DHT22;5192;50.328;7.610;2023-03-01T01:09:10;-2.30;16.60
10294;DHT22;5192;50.328;7.610;2023-03-01T01:11:47;-2.40;17.00
10294;DHT22;5192;50.328;7.610;2023-03-01T01:14:13;-2.40;17.40
10294;DHT22;5192;50.328;7.610;2023-03-01T01:16:41;-2.50;17.90
10294;DHT22;5192;50.328;7.610;2023-03-01T01:19:10;-2.60;18.50
10294;DHT22;5192;50.328;7.610;2023-03-01T01:21:38;-2.60;18.80
10294;DHT22;5192;50.328;7.610;2023-03-01T01:24:04;-2.60;18.70
10294;DHT22;5192;50.328;7.610;2023-03-01T01:26:34;-2.60;19.10
10294;DHT22;5192;50.328;7.610;2023-03-01T01:29:02;-2.70;19.00
10294;DHT22;5192;50.328;7.610;2023-03-01T01:31:30;-2.70;19.50
10294;DHT22;5192;50.328;7.610;2023-03-01T01:33:59;-2.70;19.20
10294;DHT22;5192;50.328;7.610;2023-03-01T01:36:27;-2.80;19.20
10294;DHT22;5192;50.328;7.610;2023-03-01T01:38:54;-2.70;19.40
10294;DHT22;5192;50.328;7.610;2023-03-01T01:41:22;-2.80;19.80
10294;DHT22;5192;50.328;7.610;2023-03-01T01:46:46;-2.70;19.90
10294;DHT22;5192;50.328;7.610;2023-03-01T01:52:46;-2.80;19.90
10294;DHT22;5192;50.328;7.610;2023-03-01T01:55:21;-2.90;20.60
10294;DHT22;5192;50.328;7.610;2023-03-01T01:57:52;-2.80;21.20
10294;DHT22;5192;50.328;7.610;2023-03-01T02:00:28;-2.80;21.00
10294;DHT22;5192;50.328;7.610;2023-03-01T02:03:07;-2.90;21.20
10294;DHT22;5192;50.328;7.610;2023-03-01T02:08:28;-2.90;20.60
10294;DHT22;5192;50.328;7.610;2023-03-01T02:11:01;-2.90;21.00
10294;DHT22;5192;50.328;7.610;2023-03-01T02:13:32;-2.90;22.90
10294;DHT22;5192;50.328;7.610;2023-03-01T02:15:58;-2.90;23.80
10294;DHT22;5192;50.328;7.610;2023-03-01T02:18:25;-2.90;23.40
10294;DHT22;5192;50.328;7.610;2023-03-01T02:23:47;-2.90;24.10
10294;DHT22;5192;50.328;7.610;2023-03-01T02:26:29;-2.90;24.40
10294;DHT22;5192;50.328;7.610;2023-03-01T02:28:59;-3.00;24.50
10294;DHT22;5192;50.328;7.610;2023-03-01T02:31:26;-3.00;25.40
10294;DHT22;5192;50.328;7.610;2023-03-01T02:34:21;-2.90;25.20
10294;DHT22;5192;50.328;7.610;2023-03-01T02:37:08;-3.00;24.90
10294;DHT22;5192;50.328;7.610;2023-03-01T02:39:59;-3.00;25.40
10294;DHT22;5192;50.328;7.610;2023-03-01T02:42:35;-3.00;25.40
10294;DHT22;5192;50.328;7.610;2023-03-01T02:45:03;-3.00;25.60
10294;DHT22;5192;50.328;7.610;2023-03-01T02:47:30;-3.00;25.90
10294;DHT22;5192;50.328;7.610;2023-03-01T02:49:58;-3.00;26.60
10294;DHT22;5192;50.328;7.610;2023-03-01T02:55:14;-3.10;26.50
10294;DHT22;5192;50.328;7.610;2023-03-01T02:57:46;-3.10;26.40
10294;DHT22;5192;50.328;7.610;2023-03-01T03:00:23;-3.20;26.10
10294;DHT22;5192;50.328;7.610;2023-03-01T03:02:53;-3.20;26.40
10294;DHT22;5192;50.328;7.610;2023-03-01T03:05:23;-3.20;26.40
10294;DHT22;5192;50.328;7.610;2023-03-01T03:07:55;-3.20;26.80
10294;DHT22;5192;50.328;7.610;2023-03-01T03:10:34;-3.30;26.90
10294;DHT22;5192;50.328;7.610;2023-03-01T03:13:10;-3.30;27.40
10294;DHT22;5192;50.328;7.610;2023-03-01T03:15:37;-3.30;27.80
10294;DHT22;5192;50.328;7.610;2023-03-01T03:18:06;-3.30;28.00
10294;DHT22;5192;50.328;7.610;2023-03-01T03:20:35;-3.40;27.90
10294;DHT22;5192;50.328;7.610;2023-03-01T03:23:03;-3.40;28.10
10294;DHT22;5192;50.328;7.610;2023-03-01T03:25:30;-3.40;28.10
10294;DHT22;5192;50.328;7.610;2023-03-01T03:27:57;-3.40;27.90
10294;DHT22;5192;50.328;7.610;2023-03-01T03:30:29;-3.40;27.10
10294;DHT22;5192;50.328;7.610;2023-03-01T03:32:57;-3.40;27.10
10294;DHT22;5192;50.328;7.610;2023-03-01T03:35:44;-3.40;27.00
10294;DHT22;5192;50.328;7.610;2023-03-01T03:38:13;-3.40;27.60
10294;DHT22;5192;50.328;7.610;2023-03-01T03:40:45;-3.40;28.30
10294;DHT22;5192;50.328;7.610;2023-03-01T03:43:16;-3.30;29.00
10294;DHT22;5192;50.328;7.610;2023-03-01T03:45:45;-3.30;29.30
10294;DHT22;5192;50.328;7.610;2023-03-01T03:48:14;-3.30;30.00
10294;DHT22;5192;50.328;7.610;2023-03-01T03:50:46;-3.30;29.80
10294;DHT22;5192;50.328;7.610;2023-03-01T03:53:13;-3.30;30.00
10294;DHT22;5192;50.328;7.610;2023-03-01T03:55:40;-3.30;29.90
10294;DHT22;5192;50.328;7.610;2023-03-01T03:58:10;-3.30;29.80
10294;DHT22;5192;50.328;7.610;2023-03-01T04:00:42;-3.40;29.60
10294;DHT22;5192;50.328;7.610;2023-03-01T04:03:13;-3.40;29.70
10294;DHT22;5192;50.328;7.610;2023-03-01T04:05:44;-3.40;30.10
10294;DHT22;5192;50.328;7.610;2023-03-01T04:08:11;-3.50;30.70
10294;DHT22;5192;50.328;7.610;2023-03-01T04:10:42;-3.40;31.20
10294;DHT22;5192;50.328;7.610;2023-03-01T04:13:14;-3.40;31.70
10294;DHT22;5192;50.328;7.610;2023-03-01T04:15:41;-3.40;31.20
10294;DHT22;5192;50.328;7.610;2023-03-01T04:18:12;-3.50;31.60
10294;DHT22;5192;50.328;7.610;2023-03-01T04:20:39;-3.50;31.70
10294;DHT22;5192;50.328;7.610;2023-03-01T04:23:15;-3.50;32.10
10294;DHT22;5192;50.328;7.610;2023-03-01T04:25:58;-3.60;32.20
10294;DHT22;5192;50.328;7.610;2023-03-01T04:28:41;-3.50;32.50
10294;DHT22;5192;50.328;7.610;2023-03-01T04:31:18;-3.60;32.30
10294;DHT22;5192;50.328;7.610;2023-03-01T04:33:54;-3.60;32.50
10294;DHT22;5192;50.328;7.610;2023-03-01T04:36:23;-3.60;32.30
10294;DHT22;5192;50.328;7.610;2023-03-01T04:38:49;-3.60;32.00
10294;DHT22;5192;50.328;7.610;2023-03-01T04:41:18;-3.70;31.70
10294;DHT22;5192;50.328;7.610;2023-03-01T04:43:45;-3.70;32.40
10294;DHT22;5192;50.328;7.610;2023-03-01T04:46:18;-3.70;32.60
10294;DHT22;5192;50.328;7.610;2023-03-01T04:48:45;-3.80;33.20
10294;DHT22;5192;50.328;7.610;2023-03-01T04:51:15;-3.70;33.90
10294;DHT22;5192;50.328;7.610;2023-03-01T04:53:43;-3.80;33.90
10294;DHT22;5192;50.328;7.610;2023-03-01T04:56:09;-3.80;34.00
10294;DHT22;5192;50.328;7.610;2023-03-01T04:58:37;-3.80;33.80
10294;DHT22;5192;50.328;7.610;2023-03-01T05:01:15;-3.80;33.70
10294;DHT22;5192;50.328;7.610;2023-03-01T05:03:44;-3.80;33.40
10294;DHT22;5192;50.328;7.610;2023-03-01T05:06:15;-3.80;33.10
10294;DHT22;5192;50.328;7.610;2023-03-01T05:08:43;-3.90;32.00
10294;DHT22;5192;50.328;7.610;2023-03-01T05:11:12;-3.90;31.50
10294;DHT22;5192;50.328;7.610;2023-03-01T05:13:39;-3.90;31.80
10294;DHT22;5192;50.328;7.610;2023-03-01T05:16:08;-3.90;32.30
10294;DHT22;5192;50.328;7.610;2023-03-01T05:18:42;-3.90;32.10
10294;DHT22;5192;50.328;7.610;2023-03-01T05:21:12;-3.90;31.70
10294;DHT22;5192;50.328;7.610;2023-03-01T05:23:39;-3.90;30.70
10294;DHT22;5192;50.328;7.610;2023-03-01T05:26:08;-3.90;33.70
10294;DHT22;5192;50.328;7.610;2023-03-01T05:28:35;-3.90;33.30
10294;DHT22;5192;50.328;7.610;2023-03-01T05:31:01;-4.00;31.30
10294;DHT22;5192;50.328;7.610;2023-03-01T05:33:28;-4.00;32.70
10294;DHT22;5192;50.328;7.610;2023-03-01T05:35:59;-4.00;32.50
10294;DHT22;5192;50.328;7.610;2023-03-01T05:38:29;-4.00;33.10
10294;DHT22;5192;50.328;7.610;2023-03-01T05:40:55;-4.00;33.30
10294;DHT22;5192;50.328;7.610;2023-03-01T05:43:24;-4.00;33.70
10294;DHT22;5192;50.328;7.610;2023-03-01T05:45:49;-4.10;33.30
10294;DHT22;5192;50.328;7.610;2023-03-01T05:48:16;-4.10;33.10
10294;DHT22;5192;50.328;7.610;2023-03-01T05:50:46;-4.10;33.60
10294;DHT22;5192;50.328;7.610;2023-03-01T05:53:18;-4.10;33.60
10294;DHT22;5192;50.328;7.610;2023-03-01T05:55:48;-4.20;33.40
10294;DHT22;5192;50.328;7.610;2023-03-01T05:58:21;-4.30;33.70
10294;DHT22;5192;50.328;7.610;2023-03-01T06:00:53;-4.30;34.20
10294;DHT22;5192;50.328;7.610;2023-03-01T06:03:23;-4.30;34.70
10294;DHT22;5192;50.328;7.610;2023-03-01T06:05:56;-4.30;34.80
10294;DHT22;5192;50.328;7.610;2023-03-01T06:08:23;-4.30;35.80
10294;DHT22;5192;50.328;7.610;2023-03-01T06:10:51;-4.30;36.10
10294;DHT22;5192;50.328;7.610;2023-03-01T06:13:19;-4.30;36.40
10294;DHT22;5192;50.328;7.610;2023-03-01T06:15:45;-4.30;36.90
10294;DHT22;5192;50.328;7.610;2023-03-01T06:18:12;-4.30;37.50
10294;DHT22;5192;50.328;7.610;2023-03-01T06:20:39;-4.30;37.60
10294;DHT22;5192;50.328;7.610;2023-03-01T06:23:05;-4.30;37.90
10294;DHT22;5192;50.328;7.610;2023-03-01T06:25:31;-4.30;37.90
10294;DHT22;5192;50.328;7.610;2023-03-01T06:28:00;-4.30;37.40
10294;DHT22;5192;50.328;7.610;2023-03-01T06:30:26;-4.30;37.60
10294;DHT22;5192;50.328;7.610;2023-03-01T06:32:55;-4.30;37.40
10294;DHT22;5192;50.328;7.610;2023-03-01T06:35:27;-4.30;36.90
10294;DHT22;5192;50.328;7.610;2023-03-01T06:37:58;-4.30;37.00
10294;DHT22;5192;50.328;7.610;2023-03-01T06:40:26;-4.30;36.80
10294;DHT22;5192;50.328;7.610;2023-03-01T06:42:54;-4.30;36.50
10294;DHT22;5192;50.328;7.610;2023-03-01T06:45:22;-4.30;36.50
10294;DHT22;5192;50.328;7.610;2023-03-01T06:47:49;-4.20;36.60
10294;DHT22;5192;50.328;7.610;2023-03-01T06:50:18;-4.20;36.50
10294;DHT22;5192;50.328;7.610;2023-03-01T06:52:50;-4.20;36.30
10294;DHT22;5192;50.328;7.610;2023-03-01T06:55:22;-4.20;36.20
10294;DHT22;5192;50.328;7.610;2023-03-01T06:57:47;-4.20;36.10
10294;DHT22;5192;50.328;7.610;2023-03-01T07:00:14;-4.10;35.60
10294;DHT22;5192;50.328;7.610;2023-03-01T07:02:42;-4.10;35.10
10294;DHT22;5192;50.328;7.610;2023-03-01T07:05:11;-4.10;34.20
10294;DHT22;5192;50.328;7.610;2023-03-01T07:07:39;-4.10;34.30
10294;DHT22;5192;50.328;7.610;2023-03-01T07:10:08;-4.10;34.70
10294;DHT22;5192;50.328;7.610;2023-03-01T07:12:36;-4.00;34.90
10294;DHT22;5192;50.328;7.610;2023-03-01T07:15:03;-4.00;35.10
10294;DHT22;5192;50.328;7.610;2023-03-01T07:17:31;-4.00;35.40
10294;DHT22;5192;50.328;7.610;2023-03-01T07:19:57;-3.90;35.70
10294;DHT22;5192;50.328;7.610;2023-03-01T07:22:24;-3.80;35.80
10294;DHT22;5192;50.328;7.610;2023-03-01T07:24:50;-3.80;36.20
10294;DHT22;5192;50.328;7.610;2023-03-01T07:27:26;-3.80;36.50
10294;DHT22;5192;50.328;7.610;2023-03-01T07:29:53;-3.70;37.10
10294;DHT22;5192;50.328;7.610;2023-03-01T07:32:20;-3.70;38.20
10294;DHT22;5192;50.328;7.610;2023-03-01T07:34:47;-3.60;37.90
10294;DHT22;5192;50.328;7.610;2023-03-01T07:37:14;-3.60;38.00
10294;DHT22;5192;50.328;7.610;2023-03-01T07:39:41;-3.60;38.20
10294;DHT22;5192;50.328;7.610;2023-03-01T07:42:09;-3.50;38.10
10294;DHT22;5192;50.328;7.610;2023-03-01T07:44:36;-3.40;38.20
10294;DHT22;5192;50.328;7.610;2023-03-01T07:47:04;-3.40;38.20
10294;DHT22;5192;50.328;7.610;2023-03-01T07:49:32;-3.30;39.00
10294;DHT22;5192;50.328;7.610;2023-03-01T07:51:59;-3.20;38.60
10294;DHT22;5192;50.328;7.610;2023-03-01T07:54:26;-3.20;38.90
10294;DHT22;5192;50.328;7.610;2023-03-01T07:56:53;-3.10;38.60
10294;DHT22;5192;50.328;7.610;2023-03-01T07:59:21;-3.00;38.00
10294;DHT22;5192;50.328;7.610;2023-03-01T08:01:50;-2.80;37.30
10294;DHT22;5192;50.328;7.610;2023-03-01T08:04:15;-2.70;36.70
10294;DHT22;5192;50.328;7.610;2023-03-01T08:06:42;-2.60;35.80
10294;DHT22;5192;50.328;7.610;2023-03-01T08:09:09;-2.40;33.10
10294;DHT22;5192;50.328;7.610;2023-03-01T08:11:36;-2.30;32.30
10294;DHT22;5192;50.328;7.610;2023-03-01T08:14:02;-2.20;30.80
10294;DHT22;5192;50.328;7.610;2023-03-01T08:16:30;-2.10;28.70
10294;DHT22;5192;50.328;7.610;2023-03-01T08:18:57;-2.00;27.20
10294;DHT22;5192;50.328;7.610;2023-03-01T08:21:28;-1.90;26.40
10294;DHT22;5192;50.328;7.610;2023-03-01T08:23:56;-1.90;25.40
10294;DHT22;5192;50.328;7.610;2023-03-01T08:26:24;-1.80;24.30
10294;DHT22;5192;50.328;7.610;2023-03-01T08:28:50;-1.80;23.10
10294;DHT22;5192;50.328;7.610;2023-03-01T08:31:27;-1.80;22.80
10294;DHT22;5192;50.328;7.610;2023-03-01T08:34:00;-1.70;21.50
10294;DHT22;5192;50.328;7.610;2023-03-01T08:36:30;-1.70;20.00
10294;DHT22;5192;50.328;7.610;2023-03-01T08:38:58;-1.40;19.60
10294;DHT22;5192;50.328;7.610;2023-03-01T08:41:25;-1.50;18.50
10294;DHT22;5192;50.328;7.610;2023-03-01T08:43:54;-1.50;17.30
10294;DHT22;5192;50.328;7.610;2023-03-01T08:46:44;-1.40;16.90
10294;DHT22;5192;50.328;7.610;2023-03-01T08:49:17;-1.30;16.80
10294;DHT22;5192;50.328;7.610;2023-03-01T08:51:45;-1.10;16.20
10294;DHT22;5192;50.328;7.610;2023-03-01T08:54:20;-1.30;16.70
10294;DHT22;5192;50.328;7.610;2023-03-01T08:56:49;-1.30;16.90
10294;DHT22;5192;50.328;7.610;2023-03-01T08:59:15;-1.20;16.30
10294;DHT22;5192;50.328;7.610;2023-03-01T09:01:44;-1.30;15.40
10294;DHT22;5192;50.328;7.610;2023-03-01T09:04:14;-1.30;15.70
10294;DHT22;5192;50.328;7.610;2023-03-01T09:06:41;-1.30;16.10
10294;DHT22;5192;50.328;7.610;2023-03-01T09:09:14;-1.20;15.40
10294;DHT22;5192;50.328;7.610;2023-03-01T09:11:43;-1.20;14.20
10294;DHT22;5192;50.328;7.610;2023-03-01T09:14:12;-1.20;14.40
10294;DHT22;5192;50.328;7.610;2023-03-01T09:16:39;-1.20;13.30
10294;DHT22;5192;50.328;7.610;2023-03-01T09:19:07;-1.10;14.50
10294;DHT22;5192;50.328;7.610;2023-03-01T09:21:34;-1.00;12.30
10294;DHT22;5192;50.328;7.610;2023-03-01T09:24:01;-0.90;12.70
10294;DHT22;5192;50.328;7.610;2023-03-01T09:26:29;-0.60;12.20
10294;DHT22;5192;50.328;7.610;2023-03-01T09:28:56;-0.80;11.10
10294;DHT22;5192;50.328;7.610;2023-03-01T09:31:26;-0.70;11.40
10294;DHT22;5192;50.328;7.610;2023-03-01T09:33:54;-0.70;10.80
10294;DHT22;5192;50.328;7.610;2023-03-01T09:36:24;-0.50;10.40
10294;DHT22;5192;50.328;7.610;2023-03-01T09:38:58;-0.40;8.60
10294;DHT22;5192;50.328;7.610;2023-03-01T09:41:49;-0.30;7.50
10294;DHT22;5192;50.328;7.610;2023-03-01T09:46:59;-0.20;7.50
10294;DHT22;5192;50.328;7.610;2023-03-01T09:49:33;-0.20;8.00
10294;DHT22;5192;50.328;7.610;2023-03-01T09:52:28;-0.10;5.50
10294;DHT22;5192;50.328;7.610;2023-03-01T09:55:12;-0.10;5.60
10294;DHT22;5192;50.328;7.610;2023-03-01T10:00:47;0.10;4.40
10294;DHT22;5192;50.328;7.610;2023-03-01T10:03:58;0.10;4.20
10294;DHT22;5192;50.328;7.610;2023-03-01T10:06:32;0.30;4.70
10294;DHT22;5192;50.328;7.610;2023-03-01T10:09:17;0.40;2.10
10294;DHT22;5192;50.328;7.610;2023-03-01T10:11:50;0.50;1.40
10294;DHT22;5192;50.328;7.610;2023-03-01T10:15:10;0.70;2.40
10294;DHT22;5192;50.328;7.610;2023-03-01T10:20:21;1.00;1.00
10294;DHT22;5192;50.328;7.610;2023-03-01T10:22:51;1.10;1.00
10294;DHT22;5192;50.328;7.610;2023-03-01T10:28:02;1.40;1.00
10294;DHT22;5192;50.328;7.610;2023-03-01T10:30:40;1.50;1.00
10294;DHT22;5192;50.328;7.610;2023-03-01T10:35:45;2.00;1.00
10294;DHT22;5192;50.328;7.610;2023-03-01T10:38:13;2.20;1.00
10294;DHT22;5192;50.328;7.610;2023-03-01T10:41:06;2.40;1.00
10294;DHT22;5192;50.328;7.610;2023-03-01T10:43:49;2.70;1.00
10294;DHT22;5192;50.328;7.610;2023-03-01T10:46:36;3.10;1.00
10294;DHT22;5192;50.328;7.610;2023-03-01T10:49:22;3.20;1.00
10294;DHT22;5192;50.328;7.610;2023-03-01T10:51:51;3.50;1.00
10294;DHT22;5192;50.328;7.610;2023-03-01T10:54:27;3.70;1.00
10294;DHT22;5192;50.328;7.610;2023-03-01T10:57:05;3.90;1.00
10294;DHT22;5192;50.328;7.610;2023-03-01T10:59:37;4.20;1.00
10294;DHT22;5192;50.328;7.610;2023-03-01T11:05:21;4.40;1.00
10294;DHT22;5192;50.328;7.610;2023-03-01T11:10:32;4.80;1.00
10294;DHT22;5192;50.328;7.610;2023-03-01T11:13:32;5.00;1.00
10294;DHT22;5192;50.328;7.610;2023-03-01T11:16:05;5.10;1.00
10294;DHT22;5192;50.328;7.610;2023-03-01T11:18:35;5.30;1.00
10294;DHT22;5192;50.328;7.610;2023-03-01T11:21:03;5.50;1.00
10294;DHT22;5192;50.328;7.610;2023-03-01T11:23:33;5.50;1.00
10294;DHT22;5192;50.328;7.610;2023-03-01T11:26:05;5.70;1.00
10294;DHT22;5192;50.328;7.610;2023-03-01T11:28:39;5.80;1.00
10294;DHT22;5192;50.328;7.610;2023-03-01T11:31:09;5.80;1.00
10294;DHT22;5192;50.328;7.610;2023-03-01T11:33:59;5.80;1.00
10294;DHT22;5192;50.328;7.610;2023-03-01T11:36:52;6.00;1.00
10294;DHT22;5192;50.328;7.610;2023-03-01T11:39:31;6.20;1.00
10294;DHT22;5192;50.328;7.610;2023-03-01T11:45:14;6.70;1.00
10294;DHT22;5192;50.328;7.610;2023-03-01T11:56:03;7.60;1.00
10294;DHT22;5192;50.328;7.610;2023-03-01T11:58:56;7.80;1.00
10294;DHT22;5192;50.328;7.610;2023-03-01T12:02:08;7.80;1.00
10294;DHT22;5192;50.328;7.610;2023-03-01T12:19:01;8.20;1.00
10294;DHT22;5192;50.328;7.610;2023-03-01T12:27:28;8.60;1.00
10294;DHT22;5192;50.328;7.610;2023-03-01T12:33:28;9.00;1.00
10294;DHT22;5192;50.328;7.610;2023-03-01T12:36:18;8.80;1.00
10294;DHT22;5192;50.328;7.610;2023-03-01T12:39:19;8.90;1.00
10294;DHT22;5192;50.328;7.610;2023-03-01T12:50:24;8.80;1.00
10294;DHT22;5192;50.328;7.610;2023-03-01T12:52:58;8.80;1.00
10294;DHT22;5192;50.328;7.610;2023-03-01T12:55:43;9.00;1.00
10294;DHT22;5192;50.328;7.610;2023-03-01T12:58:26;9.30;1.00
10294;DHT22;5192;50.328;7.610;2023-03-01T13:06:41;9.50;1.00
10294;DHT22;5192;50.328;7.610;2023-03-01T13:11:54;9.80;1.00
10294;DHT22;5192;50.328;7.610;2023-03-01T13:16:55;10.20;1.00
10294;DHT22;5192;50.328;7.610;2023-03-01T13:19:39;10.40;1.00
10294;DHT22;5192;50.328;7.610;2023-03-01T13:22:33;11.00;1.00
10294;DHT22;5192;50.328;7.610;2023-03-01T13:25:15;11.70;1.00
10294;DHT22;5192;50.328;7.610;2023-03-01T13:27:45;12.40;1.00
10294;DHT22;5192;50.328;7.610;2023-03-01T13:36:00;15.00;1.00
10294;DHT22;5192;50.328;7.610;2023-03-01T13:41:12;15.80;1.00
10294;DHT22;5192;50.328;7.610;2023-03-01T13:43:41;15.70;1.00
10294;DHT22;5192;50.328;7.610;2023-03-01T13:46:21;15.80;1.00
10294;DHT22;5192;50.328;7.610;2023-03-01T13:48:55;15.90;1.00
10294;DHT22;5192;50.328;7.610;2023-03-01T13:51:26;16.40;1.00
10294;DHT22;5192;50.328;7.610;2023-03-01T13:53:56;16.20;1.00
10294;DHT22;5192;50.328;7.610;2023-03-01T13:56:27;16.30;1.00
10294;DHT22;5192;50.328;7.610;2023-03-01T13:59:19;17.30;1.00
10294;DHT22;5192;50.328;7.610;2023-03-01T14:01:58;17.40;1.00
10294;DHT22;5192;50.328;7.610;2023-03-01T14:04:32;17.70;1.00
10294;DHT22;5192;50.328;7.610;2023-03-01T14:07:21;18.30;1.00
10294;DHT22;5192;50.328;7.610;2023-03-01T14:10:02;18.40;1.00
10294;DHT22;5192;50.328;7.610;2023-03-01T14:13:02;17.50;1.00
10294;DHT22;5192;50.328;7.610;2023-03-01T14:15:50;17.30;1.00
10294;DHT22;5192;50.328;7.610;2023-03-01T14:19:01;16.50;1.00
10294;DHT22;5192;50.328;7.610;2023-03-01T14:21:24;15.50;1.00
10294;DHT22;5192;50.328;7.610;2023-03-01T14:23:52;15.40;1.00
10294;DHT22;5192;50.328;7.610;2023-03-01T14:26:23;14.80;1.00
10294;DHT22;5192;50.328;7.610;2023-03-01T14:28:50;14.90;1.00
10294;DHT22;5192;50.328;7.610;2023-03-01T14:31:37;14.80;1.00
10294;DHT22;5192;50.328;7.610;2023-03-01T14:34:05;14.70;1.00
10294;DHT22;5192;50.328;7.610;2023-03-01T14:36:33;14.50;1.00
10294;DHT22;5192;50.328;7.610;2023-03-01T14:39:00;14.30;1.00
10294;DHT22;5192;50.328;7.610;2023-03-01T14:41:35;14.20;1.00
10294;DHT22;5192;50.328;7.610;2023-03-01T14:44:05;14.30;1.00
10294;DHT22;5192;50.328;7.610;2023-03-01T14:46:38;14.10;1.00
10294;DHT22;5192;50.328;7.610;2023-03-01T14:49:16;13.90;1.00
10294;DHT22;5192;50.328;7.610;2023-03-01T14:52:05;13.90;1.00
10294;DHT22;5192;50.328;7.610;2023-03-01T14:54:50;13.60;1.00
10294;DHT22;5192;50.328;7.610;2023-03-01T14:57:32;13.30;1.00
10294;DHT22;5192;50.328;7.610;2023-03-01T15:00:01;13.00;1.00
10294;DHT22;5192;50.328;7.610;2023-03-01T15:02:34;12.50;1.00
10294;DHT22;5192;50.328;7.610;2023-03-01T15:05:04;12.20;1.00
10294;DHT22;5192;50.328;7.610;2023-03-01T15:07:38;12.20;1.00
10294;DHT22;5192;50.328;7.610;2023-03-01T15:10:17;12.00;1.00
10294;DHT22;5192;50.328;7.610;2023-03-01T15:12:48;11.80;1.00
10294;DHT22;5192;50.328;7.610;2023-03-01T15:15:34;11.50;1.00
10294;DHT22;5192;50.328;7.610;2023-03-01T15:27:02;11.00;1.00
10294;DHT22;5192;50.328;7.610;2023-03-01T15:29:34;11.00;1.00
10294;DHT22;5192;50.328;7.610;2023-03-01T15:35:42;10.70;1.00
10294;DHT22;5192;50.328;7.610;2023-03-01T15:38:36;10.70;1.00
10294;DHT22;5192;50.328;7.610;2023-03-01T15:44:31;10.90;1.00
10294;DHT22;5192;50.328;7.610;2023-03-01T15:46:59;10.70;1.00
10294;DHT22;5192;50.328;7.610;2023-03-01T15:49:43;10.60;1.00
10294;DHT22;5192;50.328;7.610;2023-03-01T15:52:21;10.70;1.00
10294;DHT22;5192;50.328;7.610;2023-03-01T15:55:27;10.50;1.00
10294;DHT22;5192;50.328;7.610;2023-03-01T15:58:25;10.50;1.00
10294;DHT22;5192;50.328;7.610;2023-03-01T16:00:53;10.50;1.00
10294;DHT22;5192;50.328;7.610;2023-03-01T16:03:23;10.40;1.00
10294;DHT22;5192;50.328;7.610;2023-03-01T16:05:49;10.20;1.00
10294;DHT22;5192;50.328;7.610;2023-03-01T16:08:18;10.20;1.00
10294;DHT22;5192;50.328;7.610;2023-03-01T16:10:46;10.00;1.00
10294;DHT22;5192;50.328;7.610;2023-03-01T16:13:13;9.90;1.00
10294;DHT22;5192;50.328;7.610;2023-03-01T16:15:39;9.80;1.00
10294;DHT22;5192;50.328;7.610;2023-03-01T16:18:08;9.60;1.00
10294;DHT22;5192;50.328;7.610;2023-03-01T16:20:37;9.50;1.00
10294;DHT22;5192;50.328;7.610;2023-03-01T16:23:09;9.30;1.00
10294;DHT22;5192;50.328;7.610;2023-03-01T16:25:37;9.20;1.00
10294;DHT22;5192;50.328;7.610;2023-03-01T16:28:09;9.10;1.00
10294;DHT22;5192;50.328;7.610;2023-03-01T16:30:38;9.10;1.00
10294;DHT22;5192;50.328;7.610;2023-03-01T16:33:08;8.90;1.00
10294;DHT22;5192;50.328;7.610;2023-03-01T16:35:39;8.80;1.00
10294;DHT22;5192;50.328;7.610;2023-03-01T16:38:08;8.70;1.00
10294;DHT22;5192;50.328;7.610;2023-03-01T16:40:36;8.70;1.00
10294;DHT22;5192;50.328;7.610;2023-03-01T16:43:04;8.70;1.00
10294;DHT22;5192;50.328;7.610;2023-03-01T16:45:35;8.60;1.00
10294;DHT22;5192;50.328;7.610;2023-03-01T16:48:04;8.50;1.00
10294;DHT22;5192;50.328;7.610;2023-03-01T16:50:31;8.40;1.00
10294;DHT22;5192;50.328;7.610;2023-03-01T16:52:59;8.30;1.00
10294;DHT22;5192;50.328;7.610;2023-03-01T16:55:26;8.20;1.00
10294;DHT22;5192;50.328;7.610;2023-03-01T16:57:53;8.00;1.00
10294;DHT22;5192;50.328;7.610;2023-03-01T17:00:21;7.80;1.00
10294;DHT22;5192;50.328;7.610;2023-03-01T17:02:51;7.60;1.00
10294;DHT22;5192;50.328;7.610;2023-03-01T17:05:19;7.50;1.00
10294;DHT22;5192;50.328;7.610;2023-03-01T17:07:50;7.30;1.00
10294;DHT22;5192;50.328;7.610;2023-03-01T17:10:17;7.10;1.00
10294;DHT22;5192;50.328;7.610;2023-03-01T17:12:48;6.90;1.00
10294;DHT22;5192;50.328;7.610;2023-03-01T17:15:16;6.80;1.00
10294;DHT22;5192;50.328;7.610;2023-03-01T17:17:44;6.60;1.00
10294;DHT22;5192;50.328;7.610;2023-03-01T17:20:12;6.50;1.00
10294;DHT22;5192;50.328;7.610;2023-03-01T17:22:37;6.30;1.00
10294;DHT22;5192;50.328;7.610;2023-03-01T17:25:10;6.10;1.00
10294;DHT22;5192;50.328;7.610;2023-03-01T17:27:41;6.00;1.00
10294;DHT22;5192;50.328;7.610;2023-03-01T17:30:10;5.80;1.00
10294;DHT22;5192;50.328;7.610;2023-03-01T17:32:39;5.60;1.00
10294;DHT22;5192;50.328;7.610;2023-03-01T17:35:05;5.50;1.00
10294;DHT22;5192;50.328;7.610;2023-03-01T17:37:33;5.40;1.00
10294;DHT22;5192;50.328;7.610;2023-03-01T17:39:58;5.30;1.00
10294;DHT22;5192;50.328;7.610;2023-03-01T17:42:26;5.20;1.00
10294;DHT22;5192;50.328;7.610;2023-03-01T17:44:53;5.00;1.00
10294;DHT22;5192;50.328;7.610;2023-03-01T17:47:19;4.90;1.00
10294;DHT22;5192;50.328;7.610;2023-03-01T17:49:46;4.80;1.00
10294;DHT22;5192;50.328;7.610;2023-03-01T17:52:14;4.70;1.00
10294;DHT22;5192;50.328;7.610;2023-03-01T17:54:42;4.50;1.00
10294;DHT22;5192;50.328;7.610;2023-03-01T17:57:07;4.40;1.00
10294;DHT22;5192;50.328;7.610;2023-03-01T17:59:37;4.30;1.00
10294;DHT22;5192;50.328;7.610;2023-03-01T18:02:04;4.20;1.00
10294;DHT22;5192;50.328;7.610;2023-03-01T18:04:31;4.10;1.00
10294;DHT22;5192;50.328;7.610;2023-03-01T18:06:58;3.90;1.00
10294;DHT22;5192;50.328;7.610;2023-03-01T18:09:26;3.80;1.00
10294;DHT22;5192;50.328;7.610;2023-03-01T18:11:55;3.60;1.00
10294;DHT22;5192;50.328;7.610;2023-03-01T18:14:22;3.50;1.00
10294;DHT22;5192;50.328;7.610;2023-03-01T18:16:51;3.40;1.00
10294;DHT22;5192;50.328;7.610;2023-03-01T18:19:19;3.30;1.00
10294;DHT22;5192;50.328;7.610;2023-03-01T18:21:48;3.20;1.00